Machen, United Kingdom
Current Conditions -  °F | °C
As of 2:20 PM on Thursday 23 Oct 2014 (Local Time) from EGFF Reporting Station
Rain Showers Rain Showers  
Wind Chill: 15°   Ceiling: 1000
Heat Index: 15°   Visibility: 5mi
Dew Point: 14°   Wind: 9mph
Humidity: 94%   Direction: 220°SW
Pressure: 30.03"   Gusts: NA
Location:  51.6°N, 3.14°W
Report Text: EGFF 231320Z 22008KT 8000 3000NW SHRA FEW008 BKN010 15/14 Q1017
Loading
Personal Weather Stations






























Interactive Weather Map
Tropical Storm Tracking
New forecast layout! Learn more

10-Day Weather Forecast

Advertisements
Track Severe Weather on mobile